sensor_id;sensor_type;location;lat;lon;timestamp;P1;durP1;ratioP1;P2;durP2;ratioP2
59294;SDS011;45067;44.654;20.200;2024-02-23T00:00:50;13.90;;;7.63;;
59294;SDS011;45067;44.654;20.200;2024-02-23T00:03:16;14.05;;;7.10;;
59294;SDS011;45067;44.654;20.200;2024-02-23T00:05:42;12.52;;;7.63;;
59294;SDS011;45067;44.654;20.200;2024-02-23T00:08:08;11.70;;;6.50;;
59294;SDS011;45067;44.654;20.200;2024-02-23T00:10:34;11.68;;;7.03;;
59294;SDS011;45067;44.654;20.200;2024-02-23T00:13:00;13.20;;;7.53;;
59294;SDS011;45067;44.654;20.200;2024-02-23T00:15:27;12.23;;;7.03;;
59294;SDS011;45067;44.654;20.200;2024-02-23T00:17:53;13.18;;;7.13;;
59294;SDS011;45067;44.654;20.200;2024-02-23T00:20:19;12.93;;;6.72;;
59294;SDS011;45067;44.654;20.200;2024-02-23T00:22:45;15.23;;;6.95;;
59294;SDS011;45067;44.654;20.200;2024-02-23T00:25:11;12.20;;;6.53;;
59294;SDS011;45067;44.654;20.200;2024-02-23T00:27:38;13.27;;;7.68;;
59294;SDS011;45067;44.654;20.200;2024-02-23T00:30:06;12.93;;;7.13;;
59294;SDS011;45067;44.654;20.200;2024-02-23T00:32:33;11.93;;;7.00;;
59294;SDS011;45067;44.654;20.200;2024-02-23T00:34:59;10.70;;;6.28;;
59294;SDS011;45067;44.654;20.200;2024-02-23T00:37:25;10.85;;;6.75;;
59294;SDS011;45067;44.654;20.200;2024-02-23T00:39:51;11.57;;;6.80;;
59294;SDS011;45067;44.654;20.200;2024-02-23T00:42:17;11.27;;;6.10;;
59294;SDS011;45067;44.654;20.200;2024-02-23T00:44:44;11.40;;;5.90;;
59294;SDS011;45067;44.654;20.200;2024-02-23T00:47:10;9.05;;;5.80;;
59294;SDS011;45067;44.654;20.200;2024-02-23T00:49:36;10.57;;;6.32;;
59294;SDS011;45067;44.654;20.200;2024-02-23T00:52:02;8.52;;;5.30;;
59294;SDS011;45067;44.654;20.200;2024-02-23T00:54:28;10.02;;;5.53;;
59294;SDS011;45067;44.654;20.200;2024-02-23T00:56:54;9.45;;;5.82;;
59294;SDS011;45067;44.654;20.200;2024-02-23T00:59:20;9.25;;;5.25;;
59294;SDS011;45067;44.654;20.200;2024-02-23T01:01:46;8.38;;;4.97;;
59294;SDS011;45067;44.654;20.200;2024-02-23T01:04:12;10.27;;;5.45;;
59294;SDS011;45067;44.654;20.200;2024-02-23T01:06:38;8.77;;;5.40;;
59294;SDS011;45067;44.654;20.200;2024-02-23T01:09:04;10.23;;;5.88;;
59294;SDS011;45067;44.654;20.200;2024-02-23T01:11:30;11.52;;;6.45;;
59294;SDS011;45067;44.654;20.200;2024-02-23T01:13:57;9.82;;;5.95;;
59294;SDS011;45067;44.654;20.200;2024-02-23T01:16:23;11.27;;;6.00;;
59294;SDS011;45067;44.654;20.200;2024-02-23T01:18:49;12.55;;;7.07;;
59294;SDS011;45067;44.654;20.200;2024-02-23T01:21:15;11.13;;;6.32;;
59294;SDS011;45067;44.654;20.200;2024-02-23T01:23:41;12.70;;;6.57;;
59294;SDS011;45067;44.654;20.200;2024-02-23T01:26:07;10.82;;;6.32;;
59294;SDS011;45067;44.654;20.200;2024-02-23T01:28:33;11.70;;;6.40;;
59294;SDS011;45067;44.654;20.200;2024-02-23T01:30:59;11.15;;;6.45;;
59294;SDS011;45067;44.654;20.200;2024-02-23T01:33:26;9.50;;;5.72;;
59294;SDS011;45067;44.654;20.200;2024-02-23T01:35:52;12.90;;;6.22;;
59294;SDS011;45067;44.654;20.200;2024-02-23T01:38:18;11.20;;;6.32;;
59294;SDS011;45067;44.654;20.200;2024-02-23T01:40:46;12.10;;;6.85;;
59294;SDS011;45067;44.654;20.200;2024-02-23T01:43:13;10.77;;;6.15;;
59294;SDS011;45067;44.654;20.200;2024-02-23T01:45:39;11.02;;;6.35;;
59294;SDS011;45067;44.654;20.200;2024-02-23T01:48:05;10.00;;;6.00;;
59294;SDS011;45067;44.654;20.200;2024-02-23T01:50:31;11.10;;;6.35;;
59294;SDS011;45067;44.654;20.200;2024-02-23T01:53:00;12.57;;;6.90;;
59294;SDS011;45067;44.654;20.200;2024-02-23T01:55:26;12.15;;;6.72;;
59294;SDS011;45067;44.654;20.200;2024-02-23T01:57:52;9.82;;;5.90;;
59294;SDS011;45067;44.654;20.200;2024-02-23T02:00:19;10.45;;;6.47;;
59294;SDS011;45067;44.654;20.200;2024-02-23T02:02:46;9.80;;;6.03;;
59294;SDS011;45067;44.654;20.200;2024-02-23T02:05:12;11.15;;;6.25;;
59294;SDS011;45067;44.654;20.200;2024-02-23T02:07:39;9.15;;;5.57;;
59294;SDS011;45067;44.654;20.200;2024-02-23T02:10:07;10.77;;;6.57;;
59294;SDS011;45067;44.654;20.200;2024-02-23T02:12:34;11.60;;;6.03;;
59294;SDS011;45067;44.654;20.200;2024-02-23T02:15:00;9.38;;;5.30;;
59294;SDS011;45067;44.654;20.200;2024-02-23T02:17:29;11.15;;;5.63;;
59294;SDS011;45067;44.654;20.200;2024-02-23T02:19:56;7.72;;;5.28;;
59294;SDS011;45067;44.654;20.200;2024-02-23T02:22:25;9.45;;;5.22;;
59294;SDS011;45067;44.654;20.200;2024-02-23T02:24:51;10.25;;;5.35;;
59294;SDS011;45067;44.654;20.200;2024-02-23T02:27:17;8.98;;;5.32;;
59294;SDS011;45067;44.654;20.200;2024-02-23T02:29:43;10.50;;;5.45;;
59294;SDS011;45067;44.654;20.200;2024-02-23T02:32:09;9.10;;;5.32;;
59294;SDS011;45067;44.654;20.200;2024-02-23T02:34:35;9.98;;;5.65;;
59294;SDS011;45067;44.654;20.200;2024-02-23T02:37:01;8.30;;;5.32;;
59294;SDS011;45067;44.654;20.200;2024-02-23T02:39:27;11.93;;;5.90;;
59294;SDS011;45067;44.654;20.200;2024-02-23T02:41:53;10.95;;;6.15;;
59294;SDS011;45067;44.654;20.200;2024-02-23T02:44:20;10.50;;;5.88;;
59294;SDS011;45067;44.654;20.200;2024-02-23T02:46:47;11.60;;;6.22;;
59294;SDS011;45067;44.654;20.200;2024-02-23T02:49:13;7.85;;;5.35;;
59294;SDS011;45067;44.654;20.200;2024-02-23T02:51:39;8.70;;;4.97;;
59294;SDS011;45067;44.654;20.200;2024-02-23T02:54:05;10.05;;;5.10;;
59294;SDS011;45067;44.654;20.200;2024-02-23T02:56:31;8.70;;;5.40;;
59294;SDS011;45067;44.654;20.200;2024-02-23T02:58:57;10.05;;;5.20;;
59294;SDS011;45067;44.654;20.200;2024-02-23T03:01:23;6.90;;;4.70;;
59294;SDS011;45067;44.654;20.200;2024-02-23T03:03:49;10.02;;;5.35;;
59294;SDS011;45067;44.654;20.200;2024-02-23T03:06:15;11.00;;;5.88;;
59294;SDS011;45067;44.654;20.200;2024-02-23T03:08:42;11.13;;;6.30;;
59294;SDS011;45067;44.654;20.200;2024-02-23T03:11:08;10.73;;;5.35;;
59294;SDS011;45067;44.654;20.200;2024-02-23T03:13:34;8.75;;;5.88;;
59294;SDS011;45067;44.654;20.200;2024-02-23T03:16:00;12.90;;;5.80;;
59294;SDS011;45067;44.654;20.200;2024-02-23T03:18:26;9.75;;;5.78;;
59294;SDS011;45067;44.654;20.200;2024-02-23T03:20:53;10.90;;;5.75;;
59294;SDS011;45067;44.654;20.200;2024-02-23T03:23:20;8.50;;;5.32;;
59294;SDS011;45067;44.654;20.200;2024-02-23T03:25:46;11.88;;;6.30;;
59294;SDS011;45067;44.654;20.200;2024-02-23T03:28:12;9.90;;;5.57;;
59294;SDS011;45067;44.654;20.200;2024-02-23T03:30:38;11.95;;;6.30;;
59294;SDS011;45067;44.654;20.200;2024-02-23T03:33:04;9.43;;;6.00;;
59294;SDS011;45067;44.654;20.200;2024-02-23T03:35:30;9.95;;;5.25;;
59294;SDS011;45067;44.654;20.200;2024-02-23T03:37:56;8.77;;;5.65;;
59294;SDS011;45067;44.654;20.200;2024-02-23T03:40:23;9.95;;;5.95;;
59294;SDS011;45067;44.654;20.200;2024-02-23T03:42:49;10.75;;;5.70;;
59294;SDS011;45067;44.654;20.200;2024-02-23T03:45:15;8.25;;;5.40;;
59294;SDS011;45067;44.654;20.200;2024-02-23T03:47:41;10.13;;;5.40;;
59294;SDS011;45067;44.654;20.200;2024-02-23T03:50:07;7.68;;;5.25;;
59294;SDS011;45067;44.654;20.200;2024-02-23T03:52:34;9.82;;;5.15;;
59294;SDS011;45067;44.654;20.200;2024-02-23T03:55:00;9.05;;;5.50;;
59294;SDS011;45067;44.654;20.200;2024-02-23T03:57:26;7.18;;;5.35;;
59294;SDS011;45067;44.654;20.200;2024-02-23T03:59:55;9.85;;;5.53;;
59294;SDS011;45067;44.654;20.200;2024-02-23T04:02:21;7.90;;;5.38;;
59294;SDS011;45067;44.654;20.200;2024-02-23T04:04:48;8.40;;;5.13;;
59294;SDS011;45067;44.654;20.200;2024-02-23T04:07:14;9.10;;;5.68;;
59294;SDS011;45067;44.654;20.200;2024-02-23T04:09:40;9.02;;;5.63;;
59294;SDS011;45067;44.654;20.200;2024-02-23T04:12:06;8.95;;;4.78;;
59294;SDS011;45067;44.654;20.200;2024-02-23T04:14:33;7.45;;;5.00;;
59294;SDS011;45067;44.654;20.200;2024-02-23T04:17:02;7.50;;;5.28;;
59294;SDS011;45067;44.654;20.200;2024-02-23T04:19:28;8.15;;;5.90;;
59294;SDS011;45067;44.654;20.200;2024-02-23T04:21:54;7.18;;;5.30;;
59294;SDS011;45067;44.654;20.200;2024-02-23T04:24:20;8.57;;;5.38;;
59294;SDS011;45067;44.654;20.200;2024-02-23T04:26:46;8.40;;;4.90;;
59294;SDS011;45067;44.654;20.200;2024-02-23T04:29:12;10.52;;;5.68;;
59294;SDS011;45067;44.654;20.200;2024-02-23T04:31:38;9.63;;;6.30;;
59294;SDS011;45067;44.654;20.200;2024-02-23T04:34:04;9.60;;;5.32;;
59294;SDS011;45067;44.654;20.200;2024-02-23T04:36:30;10.20;;;5.80;;
59294;SDS011;45067;44.654;20.200;2024-02-23T04:38:57;9.98;;;5.68;;
59294;SDS011;45067;44.654;20.200;2024-02-23T04:41:23;9.05;;;5.35;;
59294;SDS011;45067;44.654;20.200;2024-02-23T04:43:49;8.82;;;5.55;;
59294;SDS011;45067;44.654;20.200;2024-02-23T04:46:16;6.65;;;5.00;;
59294;SDS011;45067;44.654;20.200;2024-02-23T04:48:42;9.88;;;5.50;;
59294;SDS011;45067;44.654;20.200;2024-02-23T04:51:08;7.45;;;5.07;;
59294;SDS011;45067;44.654;20.200;2024-02-23T04:53:37;9.73;;;5.22;;
59294;SDS011;45067;44.654;20.200;2024-02-23T04:56:03;7.28;;;5.22;;
59294;SDS011;45067;44.654;20.200;2024-02-23T04:58:30;7.05;;;4.95;;
59294;SDS011;45067;44.654;20.200;2024-02-23T05:00:56;7.72;;;5.10;;
59294;SDS011;45067;44.654;20.200;2024-02-23T05:03:22;11.25;;;5.45;;
59294;SDS011;45067;44.654;20.200;2024-02-23T05:05:48;8.35;;;5.20;;
59294;SDS011;45067;44.654;20.200;2024-02-23T05:08:18;11.35;;;5.35;;
59294;SDS011;45067;44.654;20.200;2024-02-23T05:10:45;8.73;;;4.55;;
59294;SDS011;45067;44.654;20.200;2024-02-23T05:13:12;8.80;;;5.30;;
59294;SDS011;45067;44.654;20.200;2024-02-23T05:15:38;7.53;;;4.90;;
59294;SDS011;45067;44.654;20.200;2024-02-23T05:18:05;7.72;;;5.03;;
59294;SDS011;45067;44.654;20.200;2024-02-23T05:20:31;8.50;;;5.53;;
59294;SDS011;45067;44.654;20.200;2024-02-23T05:22:57;7.53;;;5.20;;
59294;SDS011;45067;44.654;20.200;2024-02-23T05:25:23;10.05;;;6.07;;
59294;SDS011;45067;44.654;20.200;2024-02-23T05:27:51;7.90;;;6.07;;
59294;SDS011;45067;44.654;20.200;2024-02-23T05:30:17;8.20;;;5.32;;
59294;SDS011;45067;44.654;20.200;2024-02-23T05:32:43;8.93;;;5.50;;
59294;SDS011;45067;44.654;20.200;2024-02-23T05:35:09;8.30;;;5.60;;
59294;SDS011;45067;44.654;20.200;2024-02-23T05:37:35;10.43;;;5.70;;
59294;SDS011;45067;44.654;20.200;2024-02-23T05:40:05;8.80;;;5.55;;
59294;SDS011;45067;44.654;20.200;2024-02-23T05:42:37;8.93;;;5.40;;
59294;SDS011;45067;44.654;20.200;2024-02-23T05:45:04;7.85;;;5.25;;
59294;SDS011;45067;44.654;20.200;2024-02-23T05:47:30;7.45;;;5.10;;
59294;SDS011;45067;44.654;20.200;2024-02-23T05:49:56;9.07;;;6.00;;
59294;SDS011;45067;44.654;20.200;2024-02-23T05:52:22;11.10;;;5.45;;
59294;SDS011;45067;44.654;20.200;2024-02-23T05:54:48;9.80;;;5.60;;
59294;SDS011;45067;44.654;20.200;2024-02-23T05:57:16;10.10;;;6.10;;
59294;SDS011;45067;44.654;20.200;2024-02-23T05:59:42;9.18;;;5.97;;
59294;SDS011;45067;44.654;20.200;2024-02-23T06:02:09;10.90;;;5.82;;
59294;SDS011;45067;44.654;20.200;2024-02-23T06:04:35;10.23;;;6.00;;
59294;SDS011;45067;44.654;20.200;2024-02-23T06:07:01;8.40;;;5.60;;
59294;SDS011;45067;44.654;20.200;2024-02-23T06:09:27;10.05;;;5.32;;
59294;SDS011;45067;44.654;20.200;2024-02-23T06:11:53;8.45;;;4.80;;
59294;SDS011;45067;44.654;20.200;2024-02-23T06:14:19;10.27;;;5.30;;
59294;SDS011;45067;44.654;20.200;2024-02-23T06:16:45;7.55;;;4.88;;
59294;SDS011;45067;44.654;20.200;2024-02-23T06:19:11;9.27;;;5.13;;
59294;SDS011;45067;44.654;20.200;2024-02-23T06:21:37;9.80;;;5.47;;
59294;SDS011;45067;44.654;20.200;2024-02-23T06:24:04;10.13;;;5.80;;
59294;SDS011;45067;44.654;20.200;2024-02-23T06:26:30;11.23;;;6.38;;
59294;SDS011;45067;44.654;20.200;2024-02-23T06:28:56;11.88;;;6.63;;
59294;SDS011;45067;44.654;20.200;2024-02-23T06:31:22;9.80;;;6.47;;
59294;SDS011;45067;44.654;20.200;2024-02-23T06:33:49;10.20;;;5.85;;
59294;SDS011;45067;44.654;20.200;2024-02-23T06:36:17;11.07;;;6.32;;
59294;SDS011;45067;44.654;20.200;2024-02-23T06:38:44;10.15;;;6.32;;
59294;SDS011;45067;44.654;20.200;2024-02-23T06:41:13;10.48;;;6.32;;
59294;SDS011;45067;44.654;20.200;2024-02-23T06:43:39;11.23;;;6.90;;
59294;SDS011;45067;44.654;20.200;2024-02-23T06:46:09;12.38;;;6.50;;
59294;SDS011;45067;44.654;20.200;2024-02-23T06:48:35;12.52;;;6.35;;
59294;SDS011;45067;44.654;20.200;2024-02-23T06:51:02;11.20;;;6.78;;
59294;SDS011;45067;44.654;20.200;2024-02-23T06:53:29;11.07;;;6.70;;
59294;SDS011;45067;44.654;20.200;2024-02-23T06:55:55;14.43;;;7.32;;
59294;SDS011;45067;44.654;20.200;2024-02-23T06:58:21;14.65;;;7.22;;
59294;SDS011;45067;44.654;20.200;2024-02-23T07:00:47;15.52;;;7.68;;
59294;SDS011;45067;44.654;20.200;2024-02-23T07:03:13;12.75;;;8.20;;
59294;SDS011;45067;44.654;20.200;2024-02-23T07:05:40;17.15;;;8.23;;
59294;SDS011;45067;44.654;20.200;2024-02-23T07:10:36;15.27;;;7.95;;
59294;SDS011;45067;44.654;20.200;2024-02-23T07:13:02;14.93;;;7.85;;
59294;SDS011;45067;44.654;20.200;2024-02-23T07:15:28;13.07;;;8.00;;
59294;SDS011;45067;44.654;20.200;2024-02-23T07:17:54;12.25;;;7.47;;
59294;SDS011;45067;44.654;20.200;2024-02-23T07:20:21;15.88;;;7.13;;
59294;SDS011;45067;44.654;20.200;2024-02-23T07:22:47;11.77;;;7.00;;
59294;SDS011;45067;44.654;20.200;2024-02-23T07:25:17;12.77;;;7.30;;
59294;SDS011;45067;44.654;20.200;2024-02-23T07:27:43;11.93;;;7.68;;
59294;SDS011;45067;44.654;20.200;2024-02-23T07:30:10;16.25;;;7.53;;
59294;SDS011;45067;44.654;20.200;2024-02-23T07:32:36;12.77;;;6.35;;
59294;SDS011;45067;44.654;20.200;2024-02-23T07:35:03;12.32;;;6.60;;
59294;SDS011;45067;44.654;20.200;2024-02-23T07:37:29;11.65;;;7.25;;
59294;SDS011;45067;44.654;20.200;2024-02-23T07:39:55;13.13;;;7.25;;
59294;SDS011;45067;44.654;20.200;2024-02-23T07:42:21;11.02;;;6.80;;
59294;SDS011;45067;44.654;20.200;2024-02-23T07:44:47;14.02;;;7.03;;
59294;SDS011;45067;44.654;20.200;2024-02-23T07:47:13;11.20;;;7.20;;
59294;SDS011;45067;44.654;20.200;2024-02-23T07:49:40;14.20;;;6.82;;
59294;SDS011;45067;44.654;20.200;2024-02-23T07:52:06;12.70;;;6.90;;
59294;SDS011;45067;44.654;20.200;2024-02-23T07:54:32;9.27;;;6.05;;
59294;SDS011;45067;44.654;20.200;2024-02-23T07:56:58;10.82;;;6.18;;
59294;SDS011;45067;44.654;20.200;2024-02-23T07:59:24;10.77;;;5.97;;
59294;SDS011;45067;44.654;20.200;2024-02-23T08:01:51;12.40;;;6.10;;
59294;SDS011;45067;44.654;20.200;2024-02-23T08:04:17;13.20;;;6.28;;
59294;SDS011;45067;44.654;20.200;2024-02-23T08:06:44;14.85;;;6.50;;
59294;SDS011;45067;44.654;20.200;2024-02-23T08:09:10;11.60;;;7.28;;
59294;SDS011;45067;44.654;20.200;2024-02-23T08:11:36;14.95;;;7.18;;
59294;SDS011;45067;44.654;20.200;2024-02-23T08:14:02;15.60;;;7.82;;
59294;SDS011;45067;44.654;20.200;2024-02-23T08:16:29;15.05;;;6.95;;
59294;SDS011;45067;44.654;20.200;2024-02-23T08:18:55;10.85;;;7.10;;
59294;SDS011;45067;44.654;20.200;2024-02-23T08:21:21;10.60;;;6.75;;
59294;SDS011;45067;44.654;20.200;2024-02-23T08:23:47;12.77;;;6.60;;
59294;SDS011;45067;44.654;20.200;2024-02-23T08:26:13;9.88;;;6.15;;
59294;SDS011;45067;44.654;20.200;2024-02-23T08:28:42;12.65;;;6.63;;
59294;SDS011;45067;44.654;20.200;2024-02-23T08:31:08;11.48;;;5.63;;
59294;SDS011;45067;44.654;20.200;2024-02-23T08:33:34;10.63;;;5.20;;
59294;SDS011;45067;44.654;20.200;2024-02-23T08:36:00;12.27;;;5.57;;
59294;SDS011;45067;44.654;20.200;2024-02-23T08:38:30;10.88;;;5.55;;
59294;SDS011;45067;44.654;20.200;2024-02-23T08:40:56;10.15;;;5.22;;
59294;SDS011;45067;44.654;20.200;2024-02-23T08:43:23;9.40;;;5.57;;
59294;SDS011;45067;44.654;20.200;2024-02-23T08:45:49;8.48;;;5.13;;
59294;SDS011;45067;44.654;20.200;2024-02-23T08:48:16;9.32;;;5.13;;
59294;SDS011;45067;44.654;20.200;2024-02-23T08:50:43;8.82;;;5.50;;
59294;SDS011;45067;44.654;20.200;2024-02-23T08:53:09;10.57;;;5.40;;
59294;SDS011;45067;44.654;20.200;2024-02-23T08:55:35;9.45;;;5.80;;
59294;SDS011;45067;44.654;20.200;2024-02-23T08:58:01;9.63;;;5.28;;
59294;SDS011;45067;44.654;20.200;2024-02-23T09:00:27;11.40;;;5.40;;
59294;SDS011;45067;44.654;20.200;2024-02-23T09:02:53;9.13;;;5.28;;
59294;SDS011;45067;44.654;20.200;2024-02-23T09:05:19;11.43;;;6.10;;
59294;SDS011;45067;44.654;20.200;2024-02-23T09:07:46;8.63;;;5.45;;
59294;SDS011;45067;44.654;20.200;2024-02-23T09:10:12;11.10;;;5.82;;
59294;SDS011;45067;44.654;20.200;2024-02-23T09:12:38;13.38;;;6.95;;
59294;SDS011;45067;44.654;20.200;2024-02-23T09:15:04;8.80;;;5.43;;
59294;SDS011;45067;44.654;20.200;2024-02-23T09:17:31;13.00;;;6.43;;
59294;SDS011;45067;44.654;20.200;2024-02-23T09:19:57;9.40;;;5.50;;
59294;SDS011;45067;44.654;20.200;2024-02-23T09:22:23;12.45;;;6.20;;
59294;SDS011;45067;44.654;20.200;2024-02-23T09:24:49;10.18;;;5.68;;
59294;SDS011;45067;44.654;20.200;2024-02-23T09:27:15;9.60;;;5.70;;
59294;SDS011;45067;44.654;20.200;2024-02-23T09:29:41;10.07;;;6.22;;
59294;SDS011;45067;44.654;20.200;2024-02-23T09:32:07;13.02;;;6.88;;
59294;SDS011;45067;44.654;20.200;2024-02-23T09:34:34;9.45;;;6.25;;
59294;SDS011;45067;44.654;20.200;2024-02-23T09:37:00;13.30;;;6.72;;
59294;SDS011;45067;44.654;20.200;2024-02-23T09:39:26;11.40;;;6.43;;
59294;SDS011;45067;44.654;20.200;2024-02-23T09:41:55;10.38;;;6.20;;
59294;SDS011;45067;44.654;20.200;2024-02-23T09:44:26;8.80;;;5.15;;
59294;SDS011;45067;44.654;20.200;2024-02-23T09:46:52;8.60;;;5.15;;
59294;SDS011;45067;44.654;20.200;2024-02-23T09:49:18;10.43;;;5.43;;
59294;SDS011;45067;44.654;20.200;2024-02-23T09:51:44;11.25;;;5.00;;
59294;SDS011;45067;44.654;20.200;2024-02-23T09:54:10;9.88;;;5.30;;
59294;SDS011;45067;44.654;20.200;2024-02-23T09:56:36;8.15;;;5.25;;
59294;SDS011;45067;44.654;20.200;2024-02-23T09:59:04;12.38;;;5.78;;
59294;SDS011;45067;44.654;20.200;2024-02-23T10:01:30;9.68;;;5.75;;
59294;SDS011;45067;44.654;20.200;2024-02-23T10:03:58;9.55;;;4.90;;
59294;SDS011;45067;44.654;20.200;2024-02-23T10:06:24;10.85;;;5.72;;
59294;SDS011;45067;44.654;20.200;2024-02-23T10:08:50;10.38;;;6.63;;
59294;SDS011;45067;44.654;20.200;2024-02-23T10:11:19;9.80;;;4.80;;
59294;SDS011;45067;44.654;20.200;2024-02-23T10:13:46;11.07;;;6.07;;
59294;SDS011;45067;44.654;20.200;2024-02-23T10:16:14;10.65;;;5.68;;
59294;SDS011;45067;44.654;20.200;2024-02-23T10:18:41;7.90;;;5.13;;
59294;SDS011;45067;44.654;20.200;2024-02-23T10:21:07;8.35;;;4.95;;
59294;SDS011;45067;44.654;20.200;2024-02-23T10:23:33;8.77;;;5.28;;
59294;SDS011;45067;44.654;20.200;2024-02-23T10:25:59;10.32;;;4.88;;
59294;SDS011;45067;44.654;20.200;2024-02-23T10:28:25;10.00;;;4.47;;
59294;SDS011;45067;44.654;20.200;2024-02-23T10:30:51;9.55;;;4.28;;
59294;SDS011;45067;44.654;20.200;2024-02-23T10:33:19;9.23;;;4.57;;
59294;SDS011;45067;44.654;20.200;2024-02-23T10:35:48;8.82;;;5.07;;
59294;SDS011;45067;44.654;20.200;2024-02-23T10:38:17;8.63;;;4.75;;
59294;SDS011;45067;44.654;20.200;2024-02-23T10:40:44;8.05;;;4.88;;
59294;SDS011;45067;44.654;20.200;2024-02-23T10:43:12;10.30;;;4.43;;
59294;SDS011;45067;44.654;20.200;2024-02-23T10:45:38;7.72;;;4.30;;
59294;SDS011;45067;44.654;20.200;2024-02-23T10:48:06;11.10;;;4.97;;
59294;SDS011;45067;44.654;20.200;2024-02-23T10:50:34;6.43;;;4.37;;
59294;SDS011;45067;44.654;20.200;2024-02-23T10:53:01;8.13;;;4.38;;
59294;SDS011;45067;44.654;20.200;2024-02-23T10:55:27;9.60;;;4.85;;
59294;SDS011;45067;44.654;20.200;2024-02-23T10:57:54;8.73;;;4.55;;
59294;SDS011;45067;44.654;20.200;2024-02-23T11:00:21;8.13;;;5.00;;
59294;SDS011;45067;44.654;20.200;2024-02-23T11:02:51;8.80;;;5.50;;
59294;SDS011;45067;44.654;20.200;2024-02-23T11:05:17;9.32;;;4.28;;
59294;SDS011;45067;44.654;20.200;2024-02-23T11:07:47;9.45;;;4.93;;
59294;SDS011;45067;44.654;20.200;2024-02-23T11:10:17;10.63;;;4.95;;
59294;SDS011;45067;44.654;20.200;2024-02-23T11:12:56;7.88;;;4.95;;
59294;SDS011;45067;44.654;20.200;2024-02-23T11:15:26;8.63;;;5.03;;
59294;SDS011;45067;44.654;20.200;2024-02-23T11:17:53;8.55;;;5.32;;
59294;SDS011;45067;44.654;20.200;2024-02-23T11:20:19;7.85;;;5.00;;
59294;SDS011;45067;44.654;20.200;2024-02-23T11:22:53;9.68;;;4.95;;
59294;SDS011;45067;44.654;20.200;2024-02-23T11:25:19;6.85;;;4.43;;
59294;SDS011;45067;44.654;20.200;2024-02-23T11:27:49;10.00;;;4.65;;
59294;SDS011;45067;44.654;20.200;2024-02-23T11:30:16;7.00;;;4.20;;
59294;SDS011;45067;44.654;20.200;2024-02-23T11:32:43;7.93;;;4.82;;
59294;SDS011;45067;44.654;20.200;2024-02-23T11:35:12;8.73;;;4.45;;
59294;SDS011;45067;44.654;20.200;2024-02-23T11:40:27;7.10;;;4.43;;
59294;SDS011;45067;44.654;20.200;2024-02-23T11:42:56;8.93;;;4.70;;
59294;SDS011;45067;44.654;20.200;2024-02-23T11:45:27;7.30;;;4.60;;
59294;SDS011;45067;44.654;20.200;2024-02-23T11:47:54;8.63;;;4.40;;
59294;SDS011;45067;44.654;20.200;2024-02-23T11:50:20;9.63;;;4.57;;
59294;SDS011;45067;44.654;20.200;2024-02-23T11:52:46;8.02;;;4.55;;
59294;SDS011;45067;44.654;20.200;2024-02-23T11:55:12;7.07;;;4.00;;
59294;SDS011;45067;44.654;20.200;2024-02-23T11:57:44;7.63;;;4.57;;
59294;SDS011;45067;44.654;20.200;2024-02-23T12:00:11;10.13;;;5.22;;
59294;SDS011;45067;44.654;20.200;2024-02-23T12:02:37;7.65;;;4.38;;
59294;SDS011;45067;44.654;20.200;2024-02-23T12:05:03;7.55;;;4.30;;
59294;SDS011;45067;44.654;20.200;2024-02-23T12:07:29;5.97;;;3.90;;
59294;SDS011;45067;44.654;20.200;2024-02-23T12:09:56;5.25;;;3.90;;
59294;SDS011;45067;44.654;20.200;2024-02-23T12:12:22;5.18;;;3.75;;
59294;SDS011;45067;44.654;20.200;2024-02-23T12:14:49;7.53;;;4.78;;
59294;SDS011;45067;44.654;20.200;2024-02-23T12:17:15;7.97;;;3.97;;
59294;SDS011;45067;44.654;20.200;2024-02-23T12:19:41;5.70;;;4.10;;
59294;SDS011;45067;44.654;20.200;2024-02-23T12:22:07;6.90;;;4.25;;
59294;SDS011;45067;44.654;20.200;2024-02-23T12:24:34;5.25;;;3.55;;
59294;SDS011;45067;44.654;20.200;2024-02-23T12:27:00;10.00;;;4.60;;
59294;SDS011;45067;44.654;20.200;2024-02-23T12:29:26;8.15;;;4.60;;
59294;SDS011;45067;44.654;20.200;2024-02-23T12:32:02;8.15;;;4.05;;
59294;SDS011;45067;44.654;20.200;2024-02-23T12:34:28;6.97;;;4.28;;
59294;SDS011;45067;44.654;20.200;2024-02-23T12:36:55;9.45;;;4.22;;
59294;SDS011;45067;44.654;20.200;2024-02-23T12:39:21;7.90;;;3.97;;
59294;SDS011;45067;44.654;20.200;2024-02-23T12:41:47;7.50;;;3.90;;
59294;SDS011;45067;44.654;20.200;2024-02-23T12:44:13;6.18;;;3.80;;
59294;SDS011;45067;44.654;20.200;2024-02-23T12:46:40;8.50;;;4.07;;
59294;SDS011;45067;44.654;20.200;2024-02-23T12:49:06;6.43;;;3.88;;
59294;SDS011;45067;44.654;20.200;2024-02-23T12:51:32;5.90;;;3.50;;
59294;SDS011;45067;44.654;20.200;2024-02-23T12:53:59;7.22;;;3.75;;
59294;SDS011;45067;44.654;20.200;2024-02-23T12:56:26;6.35;;;3.60;;
59294;SDS011;45067;44.654;20.200;2024-02-23T12:58:52;6.50;;;4.38;;
59294;SDS011;45067;44.654;20.200;2024-02-23T13:01:19;5.88;;;4.00;;
59294;SDS011;45067;44.654;20.200;2024-02-23T13:03:45;9.55;;;4.22;;
59294;SDS011;45067;44.654;20.200;2024-02-23T13:06:11;6.30;;;3.85;;
59294;SDS011;45067;44.654;20.200;2024-02-23T13:08:38;7.93;;;4.00;;
59294;SDS011;45067;44.654;20.200;2024-02-23T13:11:05;11.80;;;5.78;;
59294;SDS011;45067;44.654;20.200;2024-02-23T13:13:31;6.85;;;4.35;;
59294;SDS011;45067;44.654;20.200;2024-02-23T13:15:58;8.73;;;5.00;;
59294;SDS011;45067;44.654;20.200;2024-02-23T13:18:24;8.27;;;5.13;;
59294;SDS011;45067;44.654;20.200;2024-02-23T13:20:50;7.43;;;4.13;;
59294;SDS011;45067;44.654;20.200;2024-02-23T13:23:16;7.55;;;4.60;;
59294;SDS011;45067;44.654;20.200;2024-02-23T13:25:44;9.70;;;5.07;;
59294;SDS011;45067;44.654;20.200;2024-02-23T13:28:11;7.72;;;4.57;;
59294;SDS011;45067;44.654;20.200;2024-02-23T13:30:37;14.13;;;6.45;;
59294;SDS011;45067;44.654;20.200;2024-02-23T13:33:04;6.40;;;3.83;;
59294;SDS011;45067;44.654;20.200;2024-02-23T13:35:31;6.85;;;3.95;;
59294;SDS011;45067;44.654;20.200;2024-02-23T13:37:57;7.60;;;3.85;;
59294;SDS011;45067;44.654;20.200;2024-02-23T13:40:23;7.82;;;3.95;;
59294;SDS011;45067;44.654;20.200;2024-02-23T13:42:50;7.78;;;3.83;;
59294;SDS011;45067;44.654;20.200;2024-02-23T13:45:18;5.90;;;3.42;;
59294;SDS011;45067;44.654;20.200;2024-02-23T13:47:54;8.80;;;4.45;;
59294;SDS011;45067;44.654;20.200;2024-02-23T13:50:21;9.40;;;4.30;;
59294;SDS011;45067;44.654;20.200;2024-02-23T13:52:47;6.85;;;4.30;;
59294;SDS011;45067;44.654;20.200;2024-02-23T13:55:13;6.97;;;4.10;;
59294;SDS011;45067;44.654;20.200;2024-02-23T13:57:39;11.48;;;4.57;;
59294;SDS011;45067;44.654;20.200;2024-02-23T14:00:05;7.97;;;4.78;;
59294;SDS011;45067;44.654;20.200;2024-02-23T14:02:37;6.70;;;3.97;;
59294;SDS011;45067;44.654;20.200;2024-02-23T14:05:05;8.23;;;4.70;;
59294;SDS011;45067;44.654;20.200;2024-02-23T14:07:32;9.38;;;4.68;;
59294;SDS011;45067;44.654;20.200;2024-02-23T14:09:58;7.35;;;4.45;;
59294;SDS011;45067;44.654;20.200;2024-02-23T14:12:24;11.55;;;5.97;;
59294;SDS011;45067;44.654;20.200;2024-02-23T14:14:51;7.15;;;3.75;;
59294;SDS011;45067;44.654;20.200;2024-02-23T14:17:17;7.72;;;4.25;;
59294;SDS011;45067;44.654;20.200;2024-02-23T14:19:43;6.53;;;4.00;;
59294;SDS011;45067;44.654;20.200;2024-02-23T14:22:09;6.88;;;4.10;;
59294;SDS011;45067;44.654;20.200;2024-02-23T14:24:35;7.82;;;4.57;;
59294;SDS011;45067;44.654;20.200;2024-02-23T14:27:01;9.45;;;4.18;;
59294;SDS011;45067;44.654;20.200;2024-02-23T14:29:28;7.38;;;4.22;;